NWS5202 USTR-UWGG
Flight info
| Callsign | NWS5202 |
|---|---|
| Flight time | N/A |
| Altitude | 38000 |
| Route | K0848F380 BEPAR1Q BEPAR T448 BANAM T348 EKB M864 AGNOK T796 ORTIM L158 KOKAD N604 PESAB PESAB2P |
| Aircraft | B738/M-SDE2E3FGHIRWXY/LB1 |
Departure
| Time | N/A |
|---|---|
| Airport | Roshchino International Airport (USTR) |
Arrival
| Time | 2026-04-21 12:59 |
|---|---|
| Airport | Nizhny Novgorod / Strigino International Airport (UWGG) |
| Time | Latitude | Longitude | Altitude | Speed | Heading |
|---|---|---|---|---|---|
| 2026-04-21 11:59 | 56.49316 | 54.28068 | 37672 ft | 434 kts | 244° |
| 2026-04-21 11:59 | 56.46858 | 54.18096 | 37667 ft | 434 kts | 244° |
| 2026-04-21 12:00 | 56.44390 | 54.08129 | 37664 ft | 434 kts | 244° |
| 2026-04-21 12:00 | 56.41934 | 53.98243 | 37669 ft | 434 kts | 244° |
| 2026-04-21 12:01 | 56.39460 | 53.88294 | 37667 ft | 434 kts | 244° |
| 2026-04-21 12:01 | 56.36985 | 53.78337 | 37661 ft | 435 kts | 244° |
| 2026-04-21 12:02 | 56.33278 | 53.63509 | 37664 ft | 434 kts | 244° |
| 2026-04-21 12:03 | 56.30750 | 53.53621 | 37661 ft | 434 kts | 243° |
| 2026-04-21 12:03 | 56.28190 | 53.43767 | 37660 ft | 434 kts | 243° |
| 2026-04-21 12:04 | 56.25626 | 53.33923 | 37666 ft | 434 kts | 243° |
| 2026-04-21 12:04 | 56.23059 | 53.24090 | 37656 ft | 435 kts | 243° |
| 2026-04-21 12:05 | 56.20502 | 53.14327 | 37663 ft | 435 kts | 243° |
| 2026-04-21 12:05 | 56.17918 | 53.04507 | 37649 ft | 435 kts | 243° |
| 2026-04-21 12:06 | 56.15329 | 52.94709 | 37661 ft | 435 kts | 243° |
| 2026-04-21 12:06 | 56.12730 | 52.84915 | 37647 ft | 435 kts | 243° |
| 2026-04-21 12:07 | 56.10140 | 52.75198 | 37648 ft | 435 kts | 243° |
| 2026-04-21 12:07 | 56.07525 | 52.65419 | 37646 ft | 435 kts | 243° |
| 2026-04-21 12:08 | 56.04905 | 52.55641 | 37652 ft | 436 kts | 243° |
| 2026-04-21 12:08 | 56.02296 | 52.45857 | 37643 ft | 436 kts | 243° |
| 2026-04-21 12:09 | 55.99697 | 52.36139 | 37636 ft | 436 kts | 243° |
| 2026-04-21 12:09 | 55.97070 | 52.26366 | 37638 ft | 437 kts | 243° |
| 2026-04-21 12:10 | 55.94431 | 52.16594 | 37642 ft | 437 kts | 243° |
| 2026-04-21 12:10 | 55.91783 | 52.06828 | 37638 ft | 438 kts | 243° |
| 2026-04-21 12:11 | 55.89143 | 51.97136 | 37645 ft | 438 kts | 243° |
| 2026-04-21 12:11 | 55.86481 | 51.87407 | 37643 ft | 438 kts | 243° |
| 2026-04-21 12:12 | 55.83800 | 51.77647 | 37642 ft | 438 kts | 243° |
| 2026-04-21 12:12 | 55.81116 | 51.67913 | 37641 ft | 438 kts | 243° |
| 2026-04-21 12:13 | 55.78442 | 51.58243 | 37647 ft | 439 kts | 245° |
| 2026-04-21 12:13 | 55.76829 | 51.47821 | 37645 ft | 441 kts | 263° |
| 2026-04-21 12:14 | 55.76708 | 51.36921 | 37640 ft | 442 kts | 269° |
| 2026-04-21 12:14 | 55.76730 | 51.26004 | 37645 ft | 442 kts | 268° |
| 2026-04-21 12:15 | 55.76719 | 51.15070 | 37633 ft | 443 kts | 268° |
| 2026-04-21 12:15 | 55.76676 | 51.04219 | 37638 ft | 443 kts | 268° |
| 2026-04-21 12:16 | 55.76614 | 50.93273 | 37633 ft | 443 kts | 268° |
| 2026-04-21 12:16 | 55.76541 | 50.82321 | 37636 ft | 444 kts | 268° |
| 2026-04-21 12:17 | 55.76459 | 50.71443 | 37635 ft | 444 kts | 268° |
| 2026-04-21 12:17 | 55.76368 | 50.60478 | 37635 ft | 444 kts | 268° |
| 2026-04-21 12:18 | 55.76267 | 50.49517 | 37629 ft | 444 kts | 268° |
| 2026-04-21 12:18 | 55.76156 | 50.38550 | 37628 ft | 444 kts | 268° |
| 2026-04-21 12:19 | 55.76036 | 50.27585 | 37629 ft | 445 kts | 268° |
| 2026-04-21 12:19 | 55.75906 | 50.16679 | 37622 ft | 445 kts | 268° |
| 2026-04-21 12:20 | 55.75766 | 50.05695 | 37627 ft | 445 kts | 268° |
| 2026-04-21 12:20 | 55.75616 | 49.94715 | 37623 ft | 445 kts | 268° |
| 2026-04-21 12:21 | 55.75456 | 49.83734 | 37626 ft | 445 kts | 268° |
| 2026-04-21 12:21 | 55.75287 | 49.72829 | 37621 ft | 445 kts | 267° |
| 2026-04-21 12:22 | 55.75108 | 49.61848 | 37626 ft | 445 kts | 267° |
| 2026-04-21 12:22 | 55.74919 | 49.50861 | 37630 ft | 445 kts | 267° |
| 2026-04-21 12:23 | 55.74719 | 49.39868 | 37634 ft | 445 kts | 267° |
| 2026-04-21 12:24 | 55.74317 | 49.19128 | 37636 ft | 446 kts | 267° |
| 2026-04-21 12:24 | 55.74089 | 49.08145 | 37632 ft | 446 kts | 267° |
| 2026-04-21 12:25 | 55.73853 | 48.97221 | 37626 ft | 446 kts | 267° |
| 2026-04-21 12:25 | 55.73606 | 48.86238 | 37624 ft | 446 kts | 267° |
| 2026-04-21 12:26 | 55.73350 | 48.75252 | 37619 ft | 446 kts | 267° |
| 2026-04-21 12:26 | 55.73082 | 48.64257 | 37613 ft | 446 kts | 267° |
| 2026-04-21 12:27 | 55.72808 | 48.53346 | 37616 ft | 446 kts | 267° |
| 2026-04-21 12:27 | 55.72521 | 48.42358 | 37619 ft | 446 kts | 266° |
| 2026-04-21 12:28 | 55.72225 | 48.31377 | 37620 ft | 446 kts | 266° |
| 2026-04-21 12:28 | 55.71919 | 48.20394 | 37620 ft | 446 kts | 266° |
| 2026-04-21 12:29 | 55.71604 | 48.09410 | 37618 ft | 446 kts | 266° |
| 2026-04-21 12:29 | 55.71280 | 47.98504 | 37626 ft | 446 kts | 266° |
| 2026-04-21 12:30 | 55.70945 | 47.87521 | 37624 ft | 446 kts | 266° |
| 2026-04-21 12:30 | 55.70600 | 47.76541 | 37629 ft | 446 kts | 266° |
| 2026-04-21 12:31 | 55.70245 | 47.65570 | 37633 ft | 446 kts | 266° |
| 2026-04-21 12:31 | 55.69881 | 47.54598 | 37634 ft | 446 kts | 266° |
| 2026-04-21 12:32 | 55.69509 | 47.43700 | 37634 ft | 446 kts | 266° |
| 2026-04-21 12:32 | 55.69127 | 47.32743 | 37636 ft | 446 kts | 266° |
| 2026-04-21 12:33 | 55.68734 | 47.21778 | 37638 ft | 446 kts | 266° |
| 2026-04-21 12:33 | 55.69145 | 47.10859 | 37631 ft | 446 kts | 283° |
| 2026-04-21 12:33 | 55.69950 | 47.05491 | 37120 ft | 453 kts | 285° |
| 2026-04-21 12:34 | 55.70829 | 47.00228 | 36593 ft | 451 kts | 286° |
| 2026-04-21 12:34 | 55.71735 | 46.94904 | 36019 ft | 450 kts | 286° |
| 2026-04-21 12:34 | 55.72628 | 46.89584 | 35420 ft | 451 kts | 286° |
| 2026-04-21 12:34 | 55.73506 | 46.84234 | 34757 ft | 453 kts | 286° |
| 2026-04-21 12:35 | 55.74371 | 46.78856 | 34088 ft | 455 kts | 286° |
| 2026-04-21 12:35 | 55.75233 | 46.73434 | 33342 ft | 457 kts | 286° |
| 2026-04-21 12:35 | 55.76093 | 46.67981 | 32556 ft | 459 kts | 287° |
| 2026-04-21 12:35 | 55.76953 | 46.62521 | 31820 ft | 460 kts | 287° |
| 2026-04-21 12:36 | 55.77803 | 46.57115 | 31081 ft | 461 kts | 287° |
| 2026-04-21 12:36 | 55.78664 | 46.51620 | 30307 ft | 463 kts | 288° |
| 2026-04-21 12:36 | 55.79426 | 46.46081 | 29749 ft | 461 kts | 282° |
| 2026-04-21 12:36 | 55.79749 | 46.40417 | 29050 ft | 460 kts | 276° |
| 2026-04-21 12:37 | 55.79919 | 46.34776 | 28458 ft | 454 kts | 276° |
| 2026-04-21 12:37 | 55.80061 | 46.29210 | 27920 ft | 448 kts | 276° |
| 2026-04-21 12:37 | 55.80202 | 46.23716 | 27392 ft | 442 kts | 276° |
| 2026-04-21 12:37 | 55.80350 | 46.18291 | 26857 ft | 437 kts | 276° |
| 2026-04-21 12:38 | 55.80505 | 46.12932 | 26328 ft | 432 kts | 277° |
| 2026-04-21 12:38 | 55.80663 | 46.07692 | 25814 ft | 428 kts | 277° |
| 2026-04-21 12:38 | 55.80822 | 46.02442 | 25295 ft | 424 kts | 277° |
| 2026-04-21 12:38 | 55.80980 | 45.97238 | 24795 ft | 420 kts | 277° |
| 2026-04-21 12:39 | 55.81135 | 45.92081 | 24295 ft | 416 kts | 278° |
| 2026-04-21 12:39 | 55.81287 | 45.86959 | 23799 ft | 413 kts | 278° |
| 2026-04-21 12:39 | 55.81435 | 45.81886 | 23307 ft | 410 kts | 278° |
| 2026-04-21 12:39 | 55.81580 | 45.76833 | 22724 ft | 407 kts | 278° |
| 2026-04-21 12:40 | 55.81722 | 45.71833 | 22201 ft | 404 kts | 277° |
| 2026-04-21 12:40 | 55.81859 | 45.66878 | 21714 ft | 399 kts | 277° |
| 2026-04-21 12:40 | 55.81992 | 45.62038 | 21230 ft | 395 kts | 277° |
| 2026-04-21 12:40 | 55.82123 | 45.57182 | 20738 ft | 391 kts | 277° |
| 2026-04-21 12:41 | 55.82251 | 45.52372 | 20270 ft | 387 kts | 277° |
| 2026-04-21 12:41 | 55.82376 | 45.47605 | 19790 ft | 384 kts | 277° |
| 2026-04-21 12:41 | 55.82498 | 45.42879 | 19324 ft | 381 kts | 276° |
| 2026-04-21 12:41 | 55.82618 | 45.38193 | 18852 ft | 378 kts | 276° |
| 2026-04-21 12:42 | 55.82735 | 45.33535 | 18388 ft | 375 kts | 276° |
| 2026-04-21 12:42 | 55.82850 | 45.28911 | 17931 ft | 373 kts | 276° |
| 2026-04-21 12:42 | 55.82960 | 45.24392 | 17438 ft | 370 kts | 276° |
| 2026-04-21 12:42 | 55.83070 | 45.19854 | 16990 ft | 365 kts | 276° |
| 2026-04-21 12:43 | 55.83176 | 45.15358 | 16567 ft | 361 kts | 275° |
| 2026-04-21 12:43 | 55.83279 | 45.10924 | 16138 ft | 357 kts | 275° |
| 2026-04-21 12:43 | 55.83718 | 45.06650 | 15687 ft | 349 kts | 295° |
| 2026-04-21 12:43 | 55.84974 | 45.03049 | 15272 ft | 341 kts | 315° |
| 2026-04-21 12:44 | 55.86828 | 45.00520 | 14858 ft | 334 kts | 335° |
| 2026-04-21 12:44 | 55.89006 | 44.99215 | 14462 ft | 329 kts | 351° |
| 2026-04-21 12:44 | 55.91248 | 44.99118 | 14047 ft | 327 kts | 7° |
| 2026-04-21 12:44 | 55.93485 | 44.99818 | 13635 ft | 326 kts | 11° |
| 2026-04-21 12:45 | 55.95728 | 45.00186 | 13134 ft | 325 kts | 354° |
| 2026-04-21 12:45 | 55.97868 | 44.99004 | 12715 ft | 324 kts | 332° |
| 2026-04-21 12:45 | 55.99598 | 44.96452 | 12289 ft | 325 kts | 310° |
| 2026-04-21 12:45 | 56.00718 | 44.92970 | 11883 ft | 325 kts | 292° |
| 2026-04-21 12:46 | 56.01142 | 44.89012 | 11470 ft | 326 kts | 276° |
| 2026-04-21 12:46 | 56.01262 | 44.84970 | 11048 ft | 325 kts | 274° |
| 2026-04-21 12:46 | 56.01338 | 44.80947 | 10627 ft | 323 kts | 274° |
| 2026-04-21 12:46 | 56.01410 | 44.76995 | 10256 ft | 321 kts | 274° |
| 2026-04-21 12:47 | 56.01488 | 44.73086 | 10134 ft | 309 kts | 275° |
| 2026-04-21 12:47 | 56.01571 | 44.69306 | 10000 ft | 300 kts | 275° |
| 2026-04-21 12:47 | 56.01656 | 44.65646 | 9870 ft | 290 kts | 275° |
| 2026-04-21 12:47 | 56.01740 | 44.62097 | 9755 ft | 281 kts | 275° |
| 2026-04-21 12:48 | 56.01824 | 44.58631 | 9480 ft | 279 kts | 276° |
| 2026-04-21 12:48 | 56.01906 | 44.55178 | 9186 ft | 276 kts | 276° |
| 2026-04-21 12:48 | 56.01986 | 44.51762 | 8886 ft | 275 kts | 276° |
| 2026-04-21 12:48 | 56.02064 | 44.48408 | 8586 ft | 273 kts | 276° |
| 2026-04-21 12:49 | 56.02141 | 44.45029 | 8301 ft | 271 kts | 276° |
| 2026-04-21 12:49 | 56.02217 | 44.41659 | 7997 ft | 271 kts | 276° |
| 2026-04-21 12:49 | 56.02292 | 44.38305 | 7730 ft | 270 kts | 276° |
| 2026-04-21 12:49 | 56.02367 | 44.34936 | 7422 ft | 271 kts | 276° |
| 2026-04-21 12:50 | 56.02441 | 44.31573 | 7118 ft | 271 kts | 277° |
| 2026-04-21 12:50 | 56.02513 | 44.28219 | 6834 ft | 270 kts | 277° |
| 2026-04-21 12:50 | 56.02585 | 44.24862 | 6569 ft | 270 kts | 277° |
| 2026-04-21 12:50 | 56.02656 | 44.21504 | 6283 ft | 271 kts | 277° |
| 2026-04-21 12:51 | 56.02726 | 44.18173 | 5989 ft | 272 kts | 277° |
| 2026-04-21 12:51 | 56.02796 | 44.14791 | 5672 ft | 273 kts | 277° |
| 2026-04-21 12:51 | 56.02865 | 44.11401 | 5383 ft | 273 kts | 277° |
| 2026-04-21 12:51 | 56.02933 | 44.08014 | 5114 ft | 272 kts | 276° |
| 2026-04-21 12:52 | 56.02998 | 44.04670 | 4997 ft | 265 kts | 276° |
| 2026-04-21 12:52 | 56.03062 | 44.01390 | 4779 ft | 262 kts | 276° |
| 2026-04-21 12:52 | 56.03125 | 43.98141 | 4509 ft | 261 kts | 276° |
| 2026-04-21 12:52 | 56.03186 | 43.94900 | 4216 ft | 260 kts | 276° |
| 2026-04-21 12:53 | 56.03245 | 43.91692 | 4024 ft | 256 kts | 276° |
| 2026-04-21 12:53 | 56.03322 | 43.88598 | 3899 ft | 248 kts | 281° |
| 2026-04-21 12:53 | 56.03603 | 43.85624 | 3797 ft | 239 kts | 287° |
| 2026-04-21 12:53 | 56.03929 | 43.82757 | 3689 ft | 232 kts | 287° |
| 2026-04-21 12:54 | 56.04240 | 43.79966 | 3595 ft | 225 kts | 287° |
| 2026-04-21 12:54 | 56.04533 | 43.77257 | 3509 ft | 218 kts | 287° |
| 2026-04-21 12:54 | 56.04963 | 43.74760 | 3395 ft | 201 kts | 311° |
| 2026-04-21 12:54 | 56.06017 | 43.73477 | 3223 ft | 177 kts | 355° |
| 2026-04-21 12:55 | 56.07213 | 43.73425 | 3089 ft | 170 kts | 4° |
| 2026-04-21 12:55 | 56.08367 | 43.73557 | 3009 ft | 167 kts | 6° |
| 2026-04-21 12:55 | 56.09534 | 43.73753 | 2799 ft | 170 kts | 9° |
| 2026-04-21 12:55 | 56.10703 | 43.74095 | 2563 ft | 169 kts | 11° |
| 2026-04-21 12:56 | 56.11841 | 43.74496 | 2338 ft | 164 kts | 11° |
| 2026-04-21 12:56 | 56.12940 | 43.74898 | 2104 ft | 159 kts | 11° |
| 2026-04-21 12:56 | 56.13988 | 43.75284 | 1885 ft | 148 kts | 10° |
| 2026-04-21 12:56 | 56.14953 | 43.75639 | 1670 ft | 136 kts | 9° |
| 2026-04-21 12:57 | 56.15854 | 43.75968 | 1497 ft | 133 kts | 9° |
| 2026-04-21 12:57 | 56.16746 | 43.76295 | 1311 ft | 132 kts | 10° |
| 2026-04-21 12:57 | 56.17648 | 43.76626 | 1107 ft | 136 kts | 10° |
| 2026-04-21 12:57 | 56.18589 | 43.76970 | 891 ft | 139 kts | 10° |
| 2026-04-21 12:58 | 56.19531 | 43.77324 | 689 ft | 138 kts | 11° |
| 2026-04-21 12:58 | 56.20470 | 43.77671 | 500 ft | 138 kts | 9° |
| 2026-04-21 12:58 | 56.21410 | 43.78004 | 316 ft | 137 kts | 10° |
| 2026-04-21 12:58 | 56.22298 | 43.78329 | 267 ft | 112 kts | 11° |
| 2026-04-21 12:59 | 56.22846 | 43.78528 | 265 ft | 45 kts | 12° |
| 2026-04-21 12:59 | 56.23114 | 43.78628 | 268 ft | 35 kts | 11° |
| 2026-04-21 12:59 | 56.23326 | 43.78705 | 265 ft | 29 kts | 11° |
| 2026-04-21 12:59 | 56.23521 | 43.78777 | 263 ft | 28 kts | 11° |
| 2026-04-21 13:00 | 56.23704 | 43.78843 | 264 ft | 26 kts | 11° |
| 2026-04-21 13:00 | 56.23876 | 43.78904 | 266 ft | 24 kts | 12° |
| 2026-04-21 13:00 | 56.24035 | 43.78963 | 266 ft | 23 kts | 12° |
| 2026-04-21 13:00 | 56.24115 | 43.79060 | 266 ft | 14 kts | 88° |
| 2026-04-21 13:01 | 56.24074 | 43.79206 | 265 ft | 13 kts | 128° |
| 2026-04-21 13:01 | 56.23999 | 43.79273 | 265 ft | 11 kts | 183° |
| 2026-04-21 13:01 | 56.23922 | 43.79266 | 265 ft | 12 kts | 183° |
| 2026-04-21 13:01 | 56.23814 | 43.79258 | 265 ft | 19 kts | 182° |
| 2026-04-21 13:02 | 56.23677 | 43.79248 | 265 ft | 19 kts | 182° |
| 2026-04-21 13:02 | 56.23545 | 43.79239 | 265 ft | 19 kts | 183° |
| 2026-04-21 13:02 | 56.23297 | 43.79156 | 265 ft | 17 kts | 192° |
| 2026-04-21 13:03 | 56.23180 | 43.79113 | 265 ft | 17 kts | 191° |
| 2026-04-21 13:03 | 56.23068 | 43.79073 | 265 ft | 16 kts | 191° |
| 2026-04-21 13:03 | 56.22959 | 43.79033 | 265 ft | 16 kts | 192° |
| 2026-04-21 13:03 | 56.22856 | 43.78994 | 265 ft | 15 kts | 191° |
| 2026-04-21 13:04 | 56.22756 | 43.78958 | 265 ft | 14 kts | 191° |
| 2026-04-21 13:04 | 56.22660 | 43.78924 | 265 ft | 14 kts | 191° |
| 2026-04-21 13:04 | 56.22569 | 43.78892 | 265 ft | 13 kts | 191° |
| 2026-04-21 13:04 | 56.22481 | 43.78858 | 265 ft | 13 kts | 194° |
| 2026-04-21 13:05 | 56.22400 | 43.78804 | 265 ft | 12 kts | 192° |
| 2026-04-21 13:05 | 56.22317 | 43.78773 | 265 ft | 12 kts | 192° |
| 2026-04-21 13:05 | 56.22236 | 43.78743 | 265 ft | 12 kts | 192° |
| 2026-04-21 13:05 | 56.22157 | 43.78714 | 265 ft | 11 kts | 192° |
| 2026-04-21 13:06 | 56.22082 | 43.78686 | 265 ft | 10 kts | 192° |
| 2026-04-21 13:06 | 56.22037 | 43.78731 | 265 ft | 8 kts | 105° |
| 2026-04-21 13:06 | 56.22026 | 43.78822 | 265 ft | 5 kts | 101° |
| 2026-04-21 13:06 | 56.22022 | 43.78859 | 265 ft | 0 kts | 100° |